PWSweather.com
Personal Weather Stations
Station Observations
MARRWS
Allansford VictoriaAU 3277

Allansford VictoriaAU 3277

Lat: -38.4003683814149, Lon: 142.569826841354

Elevation: 36

Station Type: Fine Offset X7062

http://home.vicnet.net.au/~marr/Weather/

Latest ConditionsUpdated 1:50:02 PM GMT+10:10 Wednesday, Aug 21, 2019
Currently Today's Max Today's Min Today's Average
Temperature 56.3°F13.5°C 57.2°F14.0°C 51.4°F10.8°C 54.0°F12.2°C
Dew Point 51.5°F10.8°C 54.3°F12.4°C 50.8°F10.4°C 52.3°F11.3°C
Winds 15.9 mph W25.6 kmh W 20.7 mph -33.3 kmh - - 14.5 mph 23.3 kmh
Wind Gusts 25.1 mph40.4 kmh 32.7 mph52.6 kmh - -
Humidity 84% 100% 84% 94%
Pressure 30.40 in1029.5 mb 30.45 in1031.2 mb 30.31 in1026.4 mb -
Hour Temp Dew Point Humidity Winds Wind Gusts Pressure Precip Precip Rate Daily Precip Total
01:50 PM 56.3°F13.5°C 51.5°F10.8°C 84% 15.9 mph W25.6 kmh W 25.1 mph40.4 kmh 30.40 in1029.5 mb 0.00 in0.0 mm 0.00 in0.0 mm 0.00 in0.0 mm
01:40 PM 56.8°F13.8°C 52.1°F11.2°C 84% 15.0 mph W24.1 kmh W 23.5 mph37.8 kmh 30.39 in1029.1 mb 0.00 in0.0 mm 0.00 in0.0 mm 0.00 in0.0 mm
01:30 PM 56.8°F13.8°C 52.1°F11.2°C 84% 15.4 mph WNW24.8 kmh WNW 21.3 mph34.3 kmh 30.40 in1029.5 mb 0.00 in0.0 mm 0.00 in0.0 mm 0.00 in0.0 mm
01:20 PM 56.1°F13.4°C 52.3°F11.3°C 87% 13.9 mph WNW22.4 kmh WNW 21.3 mph34.3 kmh 30.40 in1029.5 mb 0.00 in0.0 mm 0.00 in0.0 mm 0.00 in0.0 mm
01:10 PM 55.0°F12.8°C 51.2°F10.7°C 87% 12.6 mph WNW20.3 kmh WNW 19.7 mph31.7 kmh 30.40 in1029.5 mb 0.00 in0.0 mm 0.00 in0.0 mm 0.00 in0.0 mm
01:00 PM 56.1°F13.4°C 52.0°F11.1°C 86% 13.4 mph W21.6 kmh W 19.0 mph30.6 kmh 30.41 in1029.8 mb 0.00 in0.0 mm 0.00 in0.0 mm 0.00 in0.0 mm
12:50 PM 56.1°F13.4°C 52.3°F11.3°C 87% 15.0 mph NW24.1 kmh NW 23.5 mph37.8 kmh 30.41 in1029.8 mb 0.00 in0.0 mm 0.00 in0.0 mm 0.00 in0.0 mm
12:40 PM 55.8°F13.2°C 52.0°F11.1°C 87% 13.8 mph W22.2 kmh W 23.5 mph37.8 kmh 30.41 in1029.8 mb 0.00 in0.0 mm 0.00 in0.0 mm 0.00 in0.0 mm
12:30 PM 55.4°F13.0°C 52.2°F11.2°C 89% 12.6 mph WNW20.3 kmh WNW 20.6 mph33.2 kmh 30.42 in1030.1 mb 0.00 in0.0 mm 0.00 in0.0 mm 0.00 in0.0 mm
12:20 PM 55.6°F13.1°C 51.5°F10.8°C 86% 12.5 mph WNW20.1 kmh WNW 22.8 mph36.7 kmh 30.42 in1030.1 mb 0.00 in0.0 mm 0.00 in0.0 mm 0.00 in0.0 mm
12:10 PM 57.2°F14.0°C 53.1°F11.7°C 86% 12.5 mph W20.1 kmh W 19.7 mph31.7 kmh 30.43 in1030.5 mb 0.00 in0.0 mm 0.00 in0.0 mm 0.00 in0.0 mm
12:00 PM 56.7°F13.7°C 52.5°F11.4°C 86% 12.7 mph W20.4 kmh W 19.7 mph31.7 kmh 30.43 in1030.5 mb 0.00 in0.0 mm 0.00 in0.0 mm 0.00 in0.0 mm
11:50 AM 56.5°F13.6°C 52.4°F11.3°C 86% 13.2 mph WNW21.2 kmh WNW 19.0 mph30.6 kmh 30.43 in1030.5 mb 0.00 in0.0 mm 0.00 in0.0 mm 0.00 in0.0 mm
11:40 AM 56.3°F13.5°C 52.2°F11.2°C 86% 13.1 mph W21.1 kmh W 21.3 mph34.3 kmh 30.44 in1030.8 mb 0.00 in0.0 mm 0.00 in0.0 mm 0.00 in0.0 mm
11:30 AM 57.0°F13.9°C 52.9°F11.6°C 86% 10.8 mph W17.4 kmh W 20.6 mph33.2 kmh 30.43 in1030.5 mb 0.00 in0.0 mm 0.00 in0.0 mm 0.00 in0.0 mm
11:20 AM 56.5°F13.6°C 52.4°F11.3°C 86% 14.0 mph W22.5 kmh W 19.7 mph31.7 kmh 30.44 in1030.8 mb 0.00 in0.0 mm 0.00 in0.0 mm 0.00 in0.0 mm
11:10 AM 56.1°F13.4°C 52.6°F11.4°C 88% 13.5 mph WNW21.7 kmh WNW 20.6 mph33.2 kmh 30.45 in1031.2 mb 0.00 in0.0 mm 0.00 in0.0 mm 0.00 in0.0 mm
11:00 AM 55.6°F13.1°C 52.1°F11.2°C 88% 16.8 mph WNW27.0 kmh WNW 24.4 mph39.3 kmh 30.44 in1030.8 mb 0.00 in0.0 mm 0.00 in0.0 mm 0.00 in0.0 mm
10:50 AM 55.6°F13.1°C 52.7°F11.5°C 90% 12.6 mph WNW20.3 kmh WNW 20.6 mph33.2 kmh 30.44 in1030.8 mb 0.00 in0.0 mm 0.00 in0.0 mm 0.00 in0.0 mm
10:40 AM 54.3°F12.4°C 52.1°F11.2°C 92% 12.0 mph W19.3 kmh W 19.0 mph30.6 kmh 30.43 in1030.5 mb 0.00 in0.0 mm 0.00 in0.0 mm 0.00 in0.0 mm
10:30 AM 56.5°F13.6°C 52.7°F11.5°C 87% 9.5 mph W15.3 kmh W 17.4 mph28.0 kmh 30.44 in1030.8 mb 0.00 in0.0 mm 0.00 in0.0 mm 0.00 in0.0 mm
10:20 AM 56.8°F13.8°C 52.7°F11.5°C 86% 10.0 mph W16.1 kmh W 17.4 mph28.0 kmh 30.44 in1030.8 mb 0.00 in0.0 mm 0.00 in0.0 mm 0.00 in0.0 mm
10:10 AM 55.8°F13.2°C 52.0°F11.1°C 87% 10.4 mph W16.7 kmh W 19.7 mph31.7 kmh 30.44 in1030.8 mb 0.00 in0.0 mm 0.00 in0.0 mm 0.00 in0.0 mm
10:00 AM 56.5°F13.6°C 53.0°F11.7°C 88% 11.4 mph W18.3 kmh W 19.0 mph30.6 kmh 30.43 in1030.5 mb 0.00 in0.0 mm 0.00 in0.0 mm 0.00 in0.0 mm
09:50 AM 55.6°F13.1°C 52.1°F11.2°C 88% 13.8 mph W22.2 kmh W 23.5 mph37.8 kmh 30.43 in1030.5 mb 0.00 in0.0 mm 0.00 in0.0 mm 0.00 in0.0 mm
09:40 AM 54.9°F12.7°C 51.7°F10.9°C 89% 12.1 mph WNW19.5 kmh WNW 21.3 mph34.3 kmh 30.43 in1030.5 mb 0.00 in0.0 mm 0.00 in0.0 mm 0.00 in0.0 mm
09:30 AM 55.6°F13.1°C 52.7°F11.5°C 90% 13.2 mph WNW21.2 kmh WNW 20.6 mph33.2 kmh 30.42 in1030.1 mb 0.00 in0.0 mm 0.00 in0.0 mm 0.00 in0.0 mm
09:20 AM 55.2°F12.9°C 52.3°F11.3°C 90% 13.4 mph W21.6 kmh W 21.3 mph34.3 kmh 30.42 in1030.1 mb 0.00 in0.0 mm 0.00 in0.0 mm 0.00 in0.0 mm
09:10 AM 55.0°F12.8°C 52.2°F11.2°C 90% 12.6 mph WNW20.3 kmh WNW 22.1 mph35.6 kmh 30.42 in1030.1 mb 0.00 in0.0 mm 0.00 in0.0 mm 0.00 in0.0 mm
09:00 AM 54.7°F12.6°C 52.1°F11.2°C 91% 13.8 mph NW22.2 kmh NW 19.7 mph31.7 kmh 30.42 in1030.1 mb 0.00 in0.0 mm 0.00 in0.0 mm 0.00 in0.0 mm
08:50 AM 54.3°F12.4°C 52.6°F11.4°C 94% 11.6 mph W18.7 kmh W 20.6 mph33.2 kmh 30.42 in1030.1 mb 0.00 in0.0 mm 0.00 in0.0 mm 0.00 in0.0 mm
08:40 AM 54.5°F12.5°C 52.2°F11.2°C 92% 12.6 mph WNW20.3 kmh WNW 21.3 mph34.3 kmh 30.42 in1030.1 mb 0.00 in0.0 mm 0.00 in0.0 mm 0.00 in0.0 mm
08:30 AM 53.4°F11.9°C 52.0°F11.1°C 95% 11.4 mph W18.3 kmh W 19.0 mph30.6 kmh 30.41 in1029.8 mb 0.00 in0.0 mm 0.00 in0.0 mm 0.00 in0.0 mm
08:20 AM 53.2°F11.8°C 52.1°F11.2°C 96% 11.3 mph W18.2 kmh W 19.0 mph30.6 kmh 30.41 in1029.8 mb 0.00 in0.0 mm 0.00 in0.0 mm 0.00 in0.0 mm
08:10 AM 52.3°F11.3°C 51.5°F10.8°C 97% 12.8 mph W20.6 kmh W 23.5 mph37.8 kmh 30.40 in1029.5 mb 0.00 in0.0 mm 0.00 in0.0 mm 0.00 in0.0 mm
08:00 AM 52.0°F11.1°C 51.7°F10.9°C 99% 12.3 mph W19.8 kmh W 22.8 mph36.7 kmh 30.40 in1029.5 mb 0.00 in0.0 mm 0.00 in0.0 mm 0.00 in0.0 mm
07:50 AM 51.6°F10.9°C 51.4°F10.8°C 99% 14.8 mph WNW23.8 kmh WNW 23.5 mph37.8 kmh 30.39 in1029.1 mb 0.00 in0.0 mm 0.00 in0.0 mm 0.00 in0.0 mm
07:40 AM 51.6°F10.9°C 51.4°F10.8°C 99% 14.6 mph W23.5 kmh W 22.8 mph36.7 kmh 30.38 in1028.8 mb 0.00 in0.0 mm 0.00 in0.0 mm 0.00 in0.0 mm
07:30 AM 52.2°F11.2°C 51.9°F11.1°C 99% 14.7 mph W23.7 kmh W 26.6 mph42.8 kmh 30.36 in1028.1 mb 0.00 in0.0 mm 0.00 in0.0 mm 0.00 in0.0 mm
07:20 AM 51.6°F10.9°C 51.4°F10.8°C 99% 13.8 mph WNW22.2 kmh WNW 22.8 mph36.7 kmh 30.36 in1028.1 mb 0.00 in0.0 mm 0.00 in0.0 mm 0.00 in0.0 mm
07:10 AM 51.8°F11.0°C 51.5°F10.8°C 99% 10.5 mph W16.9 kmh W 18.3 mph29.5 kmh 30.35 in1027.8 mb 0.00 in0.0 mm 0.00 in0.0 mm 0.00 in0.0 mm
07:00 AM 51.4°F10.8°C 51.2°F10.7°C 99% 13.8 mph WNW22.2 kmh WNW 24.4 mph39.3 kmh 30.34 in1027.4 mb 0.00 in0.0 mm 0.00 in0.0 mm 0.00 in0.0 mm
06:50 AM 51.4°F10.8°C 51.4°F10.8°C 100% 12.3 mph WNW19.8 kmh WNW 22.8 mph36.7 kmh 30.34 in1027.4 mb 0.00 in0.0 mm 0.00 in0.0 mm 0.00 in0.0 mm
06:40 AM 51.4°F10.8°C 51.4°F10.8°C 100% 16.1 mph W25.9 kmh W 23.5 mph37.8 kmh 30.34 in1027.4 mb 0.00 in0.0 mm 0.00 in0.0 mm 0.00 in0.0 mm
06:30 AM 52.0°F11.1°C 52.0°F11.1°C 100% 13.6 mph WNW21.9 kmh WNW 22.8 mph36.7 kmh 30.34 in1027.4 mb 0.00 in0.0 mm 0.00 in0.0 mm 0.00 in0.0 mm
06:20 AM 51.6°F10.9°C 51.6°F10.9°C 100% 15.4 mph WNW24.8 kmh WNW 25.1 mph40.4 kmh 30.33 in1027.1 mb 0.00 in0.0 mm 0.00 in0.0 mm 0.00 in0.0 mm
06:10 AM 51.6°F10.9°C 50.8°F10.4°C 97% 16.1 mph WNW25.9 kmh WNW 25.9 mph41.7 kmh 30.33 in1027.1 mb 0.00 in0.0 mm 0.00 in0.0 mm 0.00 in0.0 mm
06:00 AM 52.3°F11.3°C 51.5°F10.8°C 97% 14.6 mph WNW23.5 kmh WNW 25.9 mph41.7 kmh 30.33 in1027.1 mb 0.00 in0.0 mm 0.00 in0.0 mm 0.00 in0.0 mm
05:50 AM 52.7°F11.5°C 51.6°F10.9°C 96% 15.8 mph WNW25.4 kmh WNW 27.3 mph43.9 kmh 30.33 in1027.1 mb 0.00 in0.0 mm 0.00 in0.0 mm 0.00 in0.0 mm
05:40 AM 52.9°F11.6°C 52.1°F11.2°C 97% 16.7 mph WNW26.9 kmh WNW 25.9 mph41.7 kmh 30.32 in1026.8 mb 0.00 in0.0 mm 0.00 in0.0 mm 0.00 in0.0 mm
05:30 AM 52.3°F11.3°C 52.3°F11.3°C 100% 17.1 mph NW27.5 kmh NW 28.2 mph45.4 kmh 30.32 in1026.8 mb 0.00 in0.0 mm 0.00 in0.0 mm 0.00 in0.0 mm
05:20 AM 51.8°F11.0°C 51.8°F11.0°C 100% 15.4 mph WNW24.8 kmh WNW 23.5 mph37.8 kmh 30.32 in1026.8 mb 0.00 in0.0 mm 0.00 in0.0 mm 0.00 in0.0 mm
05:10 AM 52.0°F11.1°C 51.2°F10.7°C 97% 15.4 mph WNW24.8 kmh WNW 23.5 mph37.8 kmh 30.32 in1026.8 mb 0.00 in0.0 mm 0.00 in0.0 mm 0.00 in0.0 mm
05:00 AM 52.3°F11.3°C 51.5°F10.8°C 97% 17.8 mph WNW28.6 kmh WNW 31.1 mph50.1 kmh 30.32 in1026.8 mb 0.00 in0.0 mm 0.00 in0.0 mm 0.00 in0.0 mm
04:50 AM 53.1°F11.7°C 52.0°F11.1°C 96% 16.2 mph WNW26.1 kmh WNW 31.1 mph50.1 kmh 30.32 in1026.8 mb 0.00 in0.0 mm 0.00 in0.0 mm 0.00 in0.0 mm
04:40 AM 52.7°F11.5°C 51.6°F10.9°C 96% 15.2 mph NW24.5 kmh NW 24.4 mph39.3 kmh 30.32 in1026.8 mb 0.00 in0.0 mm 0.00 in0.0 mm 0.00 in0.0 mm
04:30 AM 53.1°F11.7°C 52.0°F11.1°C 96% 15.6 mph W25.1 kmh W 25.9 mph41.7 kmh 30.32 in1026.8 mb 0.00 in0.0 mm 0.00 in0.0 mm 0.00 in0.0 mm
04:20 AM 52.9°F11.6°C 51.8°F11.0°C 96% 17.4 mph WNW28.0 kmh WNW 25.1 mph40.4 kmh 30.32 in1026.8 mb 0.00 in0.0 mm 0.00 in0.0 mm 0.00 in0.0 mm
04:10 AM 53.1°F11.7°C 52.0°F11.1°C 96% 17.4 mph WNW28.0 kmh WNW 28.9 mph46.5 kmh 30.32 in1026.8 mb 0.00 in0.0 mm 0.00 in0.0 mm 0.00 in0.0 mm
04:00 AM 53.6°F12.0°C 52.5°F11.4°C 96% 18.2 mph WNW29.3 kmh WNW 28.2 mph45.4 kmh 30.32 in1026.8 mb 0.00 in0.0 mm 0.00 in0.0 mm 0.00 in0.0 mm
03:50 AM 52.9°F11.6°C 52.9°F11.6°C 100% 18.8 mph WNW30.3 kmh WNW 28.2 mph45.4 kmh 30.32 in1026.8 mb 0.00 in0.0 mm 0.00 in0.0 mm 0.00 in0.0 mm
03:40 AM 53.2°F11.8°C 52.4°F11.3°C 97% 20.7 mph WNW33.3 kmh WNW 31.1 mph50.1 kmh 30.32 in1026.8 mb 0.00 in0.0 mm 0.00 in0.0 mm 0.00 in0.0 mm
03:30 AM 53.2°F11.8°C 52.4°F11.3°C 97% 19.4 mph WNW31.2 kmh WNW 28.9 mph46.5 kmh 30.32 in1026.8 mb 0.00 in0.0 mm 0.00 in0.0 mm 0.00 in0.0 mm
03:20 AM 54.0°F12.2°C 54.0°F12.2°C 100% 18.6 mph W29.9 kmh W 30.4 mph48.9 kmh 30.31 in1026.4 mb 0.00 in0.0 mm 0.00 in0.0 mm 0.00 in0.0 mm
03:10 AM 53.6°F12.0°C 53.3°F11.8°C 99% 14.8 mph WNW23.8 kmh WNW 27.3 mph43.9 kmh 30.31 in1026.4 mb 0.00 in0.0 mm 0.00 in0.0 mm 0.00 in0.0 mm
03:00 AM 53.4°F11.9°C 53.2°F11.8°C 99% 16.5 mph WNW26.6 kmh WNW 25.1 mph40.4 kmh 30.32 in1026.8 mb 0.00 in0.0 mm 0.00 in0.0 mm 0.00 in0.0 mm
02:50 AM 53.2°F11.8°C 53.0°F11.7°C 99% 18.2 mph WNW29.3 kmh WNW 31.1 mph50.1 kmh 30.32 in1026.8 mb 0.00 in0.0 mm 0.00 in0.0 mm 0.00 in0.0 mm
02:40 AM 53.2°F11.8°C 53.0°F11.7°C 99% 17.1 mph NW27.5 kmh NW 27.3 mph43.9 kmh 30.32 in1026.8 mb 0.00 in0.0 mm 0.00 in0.0 mm 0.00 in0.0 mm
02:30 AM 53.6°F12.0°C 53.3°F11.8°C 99% 18.2 mph WNW29.3 kmh WNW 27.3 mph43.9 kmh 30.32 in1026.8 mb 0.00 in0.0 mm 0.00 in0.0 mm 0.00 in0.0 mm
02:20 AM 53.1°F11.7°C 52.8°F11.6°C 99% 16.6 mph W26.7 kmh W 23.5 mph37.8 kmh 30.32 in1026.8 mb 0.00 in0.0 mm 0.00 in0.0 mm 0.00 in0.0 mm
02:10 AM 52.3°F11.3°C 52.1°F11.2°C 99% 15.3 mph WNW24.6 kmh WNW 22.8 mph36.7 kmh 30.32 in1026.8 mb 0.00 in0.0 mm 0.00 in0.0 mm 0.00 in0.0 mm
02:00 AM 52.3°F11.3°C 52.1°F11.2°C 99% 15.4 mph NW24.8 kmh NW 27.3 mph43.9 kmh 30.32 in1026.8 mb 0.00 in0.0 mm 0.00 in0.0 mm 0.00 in0.0 mm
01:50 AM 52.5°F11.4°C 52.3°F11.3°C 99% 18.0 mph WNW29.0 kmh WNW 32.7 mph52.6 kmh 30.33 in1027.1 mb 0.00 in0.0 mm 0.00 in0.0 mm 0.00 in0.0 mm
01:40 AM 52.7°F11.5°C 52.4°F11.3°C 99% 16.7 mph NW26.9 kmh NW 27.3 mph43.9 kmh 30.32 in1026.8 mb 0.00 in0.0 mm 0.00 in0.0 mm 0.00 in0.0 mm
01:30 AM 53.1°F11.7°C 52.8°F11.6°C 99% 15.1 mph NW24.3 kmh NW 25.1 mph40.4 kmh 30.32 in1026.8 mb 0.00 in0.0 mm 0.00 in0.0 mm 0.00 in0.0 mm
01:20 AM 53.8°F12.1°C 53.8°F12.1°C 100% 15.4 mph NW24.8 kmh NW 22.1 mph35.6 kmh 30.32 in1026.8 mb 0.00 in0.0 mm 0.00 in0.0 mm 0.00 in0.0 mm
01:10 AM 54.7°F12.6°C 53.3°F11.8°C 95% 16.2 mph NW26.1 kmh NW 30.4 mph48.9 kmh 30.33 in1027.1 mb 0.00 in0.0 mm 0.00 in0.0 mm 0.00 in0.0 mm
01:00 AM 54.3°F12.4°C 54.3°F12.4°C 100% 15.3 mph NW24.6 kmh NW 25.9 mph41.7 kmh 30.33 in1027.1 mb 0.00 in0.0 mm 0.00 in0.0 mm 0.00 in0.0 mm
12:50 AM 54.1°F12.3°C 54.1°F12.3°C 100% 13.6 mph NW21.9 kmh NW 21.3 mph34.3 kmh 30.33 in1027.1 mb 0.00 in0.0 mm 0.00 in0.0 mm 0.00 in0.0 mm
12:40 AM 53.8°F12.1°C 53.8°F12.1°C 100% 11.8 mph NW19.0 kmh NW 20.6 mph33.2 kmh 30.33 in1027.1 mb 0.00 in0.0 mm 0.00 in0.0 mm 0.00 in0.0 mm
12:30 AM 53.8°F12.1°C 53.8°F12.1°C 100% 13.3 mph NNW21.4 kmh NNW 25.9 mph41.7 kmh 30.33 in1027.1 mb 0.00 in0.0 mm 0.00 in0.0 mm 0.00 in0.0 mm
12:20 AM 53.6°F12.0°C 53.3°F11.8°C 99% 11.8 mph NNW19.0 kmh NNW 23.5 mph37.8 kmh 30.32 in1026.8 mb 0.00 in0.0 mm 0.00 in0.0 mm 0.00 in0.0 mm
12:10 AM 53.4°F11.9°C 53.2°F11.8°C 99% 11.8 mph NW19.0 kmh NW 20.6 mph33.2 kmh 30.33 in1027.1 mb 0.00 in0.0 mm 0.00 in0.0 mm 0.00 in0.0 mm
12:00 AM 53.2°F11.8°C 53.2°F11.8°C 100% 14.2 mph NW22.9 kmh NW 27.3 mph43.9 kmh 30.34 in1027.4 mb 0.00 in0.0 mm 0.00 in0.0 mm 0.00 in0.0 mm